sensor_id;sensor_type;location;lat;lon;timestamp;pressure;altitude;pressure_sealevel;temperature;humidity
78573;BME280;67862;0.000;0.000;2023-04-25T00:00:19;98030.22;;;22.62;58.25
78573;BME280;67862;0.000;0.000;2023-04-25T00:02:44;98025.88;;;22.61;57.72
78573;BME280;67862;0.000;0.000;2023-04-25T00:05:11;98028.16;;;22.59;57.99
78573;BME280;67862;0.000;0.000;2023-04-25T00:07:37;98022.66;;;22.59;57.96
78573;BME280;67862;0.000;0.000;2023-04-25T00:10:03;98021.03;;;22.57;58.14
78573;BME280;67862;0.000;0.000;2023-04-25T00:12:28;98019.94;;;22.59;58.34
78573;BME280;67862;0.000;0.000;2023-04-25T00:14:54;98014.47;;;22.59;58.34
78573;BME280;67862;0.000;0.000;2023-04-25T00:17:22;98018.81;;;22.60;58.02
78573;BME280;67862;0.000;0.000;2023-04-25T00:19:49;98007.06;;;22.59;58.23
78573;BME280;67862;0.000;0.000;2023-04-25T00:22:15;98005.13;;;22.60;57.79
78573;BME280;67862;0.000;0.000;2023-04-25T00:24:40;98003.53;;;22.59;57.82
78573;BME280;67862;0.000;0.000;2023-04-25T00:27:06;98008.66;;;22.60;58.13
78573;BME280;67862;0.000;0.000;2023-04-25T00:29:32;98006.25;;;22.59;57.79
78573;BME280;67862;0.000;0.000;2023-04-25T00:31:57;98000.78;;;22.59;57.80
78573;BME280;67862;0.000;0.000;2023-04-25T00:34:22;97999.97;;;22.58;58.21
78573;BME280;67862;0.000;0.000;2023-04-25T00:36:48;98000.78;;;22.59;58.15
78573;BME280;67862;0.000;0.000;2023-04-25T00:39:13;98001.59;;;22.59;58.16
78573;BME280;67862;0.000;0.000;2023-04-25T00:41:38;97995.31;;;22.59;57.85
78573;BME280;67862;0.000;0.000;2023-04-25T00:44:08;97991.75;;;22.58;58.01
78573;BME280;67862;0.000;0.000;2023-04-25T00:46:36;98000.78;;;22.59;58.15
78573;BME280;67862;0.000;0.000;2023-04-25T00:49:01;97985.19;;;22.59;57.86
78573;BME280;67862;0.000;0.000;2023-04-25T00:51:27;97980.81;;;22.58;57.99
78573;BME280;67862;0.000;0.000;2023-04-25T00:53:52;97980.81;;;22.58;58.21
78573;BME280;67862;0.000;0.000;2023-04-25T00:56:18;97978.91;;;22.59;57.89
78573;BME280;67862;0.000;0.000;2023-04-25T00:58:43;97981.16;;;22.56;58.00
78573;BME280;67862;0.000;0.000;2023-04-25T01:01:09;97974.53;;;22.57;58.33
78573;BME280;67862;0.000;0.000;2023-04-25T01:03:37;97967.47;;;22.56;58.06
78573;BME280;67862;0.000;0.000;2023-04-25T01:06:09;97965.69;;;22.61;57.66
78573;BME280;67862;0.000;0.000;2023-04-25T01:08:35;97975.84;;;22.60;57.45
78573;BME280;67862;0.000;0.000;2023-04-25T01:11:01;97969.56;;;22.60;57.91
78573;BME280;67862;0.000;0.000;2023-04-25T01:13:26;97968.28;;;22.57;57.69
78573;BME280;67862;0.000;0.000;2023-04-25T01:15:52;97973.28;;;22.55;57.44
78573;BME280;67862;0.000;0.000;2023-04-25T01:18:20;97970.53;;;22.55;57.74
78573;BME280;67862;0.000;0.000;2023-04-25T01:20:46;97966.19;;;22.54;57.54
78573;BME280;67862;0.000;0.000;2023-04-25T01:23:14;97963.78;;;22.52;57.87
78573;BME280;67862;0.000;0.000;2023-04-25T01:25:40;97967.66;;;22.51;57.47
78573;BME280;67862;0.000;0.000;2023-04-25T01:28:05;97963.66;;;22.49;57.60
78573;BME280;67862;0.000;0.000;2023-04-25T01:30:31;97962.03;;;22.48;57.59
78573;BME280;67862;0.000;0.000;2023-04-25T01:32:56;97965.25;;;22.50;57.89
78573;BME280;67862;0.000;0.000;2023-04-25T01:35:22;97962.19;;;22.51;57.71
78573;BME280;67862;0.000;0.000;2023-04-25T01:37:49;97962.81;;;22.48;57.74
78573;BME280;67862;0.000;0.000;2023-04-25T01:40:14;97966.69;;;22.47;57.70
78573;BME280;67862;0.000;0.000;2023-04-25T01:42:41;97958.81;;;22.46;57.69
78573;BME280;67862;0.000;0.000;2023-04-25T01:45:07;97962.34;;;22.46;58.48
78573;BME280;67862;0.000;0.000;2023-04-25T01:47:33;97966.06;;;22.50;58.29
78573;BME280;67862;0.000;0.000;2023-04-25T01:50:00;97962.53;;;22.50;57.95
78573;BME280;67862;0.000;0.000;2023-04-25T01:52:26;97957.34;;;22.48;58.34
78573;BME280;67862;0.000;0.000;2023-04-25T01:54:51;97960.59;;;22.50;58.47
78573;BME280;67862;0.000;0.000;2023-04-25T01:57:18;97957.34;;;22.48;58.30
78573;BME280;67862;0.000;0.000;2023-04-25T01:59:43;97958.66;;;22.51;58.39
78573;BME280;67862;0.000;0.000;2023-04-25T02:02:08;97954.13;;;22.55;58.07
78573;BME280;67862;0.000;0.000;2023-04-25T02:04:34;97961.88;;;22.53;57.74
78573;BME280;67862;0.000;0.000;2023-04-25T02:06:59;97958.78;;;22.54;57.69
78573;BME280;67862;0.000;0.000;2023-04-25T02:09:24;97954.13;;;22.55;57.80
78573;BME280;67862;0.000;0.000;2023-04-25T02:11:50;97953.00;;;22.56;57.31
78573;BME280;67862;0.000;0.000;2023-04-25T02:14:15;97956.88;;;22.55;57.24
78573;BME280;67862;0.000;0.000;2023-04-25T02:16:41;97950.59;;;22.54;57.15
78573;BME280;67862;0.000;0.000;2023-04-25T02:19:08;97956.53;;;22.56;57.43
78573;BME280;67862;0.000;0.000;2023-04-25T02:21:34;97954.94;;;22.55;57.14
78573;BME280;67862;0.000;0.000;2023-04-25T02:24:00;97959.25;;;22.56;56.85
78573;BME280;67862;0.000;0.000;2023-04-25T02:26:26;97952.19;;;22.55;56.78
78573;BME280;67862;0.000;0.000;2023-04-25T02:28:51;97957.19;;;22.53;56.82
78573;BME280;67862;0.000;0.000;2023-04-25T02:31:17;97948.19;;;22.53;57.12
78573;BME280;67862;0.000;0.000;2023-04-25T02:33:42;97955.59;;;22.52;57.02
78573;BME280;67862;0.000;0.000;2023-04-25T02:36:08;97958.31;;;22.52;57.05
78573;BME280;67862;0.000;0.000;2023-04-25T02:38:34;97957.84;;;22.50;56.90
78573;BME280;67862;0.000;0.000;2023-04-25T02:40:59;97949.66;;;22.50;56.63
78573;BME280;67862;0.000;0.000;2023-04-25T02:43:24;97950.44;;;22.51;57.00
78573;BME280;67862;0.000;0.000;2023-04-25T02:45:50;97961.41;;;22.51;57.40
78573;BME280;67862;0.000;0.000;2023-04-25T02:48:15;97956.41;;;22.53;56.49
78573;BME280;67862;0.000;0.000;2023-04-25T02:50:40;97950.13;;;22.52;56.96
78573;BME280;67862;0.000;0.000;2023-04-25T02:53:06;97946.91;;;22.50;56.66
78573;BME280;67862;0.000;0.000;2023-04-25T02:55:31;97951.25;;;22.51;56.82
78573;BME280;67862;0.000;0.000;2023-04-25T02:57:56;97945.00;;;22.51;56.64
78573;BME280;67862;0.000;0.000;2023-04-25T03:00:22;97950.13;;;22.52;56.41
78573;BME280;67862;0.000;0.000;2023-04-25T03:02:47;97943.69;;;22.48;56.56
78573;BME280;67862;0.000;0.000;2023-04-25T03:05:13;97944.19;;;22.50;56.39
78573;BME280;67862;0.000;0.000;2023-04-25T03:07:38;97946.91;;;22.50;56.12
78573;BME280;67862;0.000;0.000;2023-04-25T03:10:05;97942.72;;;22.53;56.19
78573;BME280;67862;0.000;0.000;2023-04-25T03:12:31;97936.44;;;22.52;55.84
78573;BME280;67862;0.000;0.000;2023-04-25T03:14:56;97941.91;;;22.52;56.61
78573;BME280;67862;0.000;0.000;2023-04-25T03:17:21;97940.31;;;22.51;56.74
78573;BME280;67862;0.000;0.000;2023-04-25T03:19:47;97944.66;;;22.52;56.60
78573;BME280;67862;0.000;0.000;2023-04-25T03:22:12;97939.50;;;22.51;56.40
78573;BME280;67862;0.000;0.000;2023-04-25T03:24:37;97934.38;;;22.49;56.18
78573;BME280;67862;0.000;0.000;2023-04-25T03:27:03;97940.94;;;22.48;56.29
78573;BME280;67862;0.000;0.000;2023-04-25T03:29:28;97935.97;;;22.50;56.71
78573;BME280;67862;0.000;0.000;2023-04-25T03:31:54;97939.34;;;22.47;57.13
78573;BME280;67862;0.000;0.000;2023-04-25T03:34:19;97938.72;;;22.50;57.40
78573;BME280;67862;0.000;0.000;2023-04-25T03:36:46;97935.19;;;22.50;57.15
78573;BME280;67862;0.000;0.000;2023-04-25T03:39:12;97938.22;;;22.48;56.64
78573;BME280;67862;0.000;0.000;2023-04-25T03:41:37;97940.94;;;22.48;56.37
78573;BME280;67862;0.000;0.000;2023-04-25T03:44:02;97935.47;;;22.48;56.87
78573;BME280;67862;0.000;0.000;2023-04-25T03:46:28;97933.88;;;22.47;56.19
78573;BME280;67862;0.000;0.000;2023-04-25T03:48:53;97940.47;;;22.46;56.50
78573;BME280;67862;0.000;0.000;2023-04-25T03:51:19;97931.16;;;22.47;56.37
78573;BME280;67862;0.000;0.000;2023-04-25T03:53:44;97937.13;;;22.49;56.59
78573;BME280;67862;0.000;0.000;2023-04-25T03:56:13;97937.91;;;22.50;55.73
78573;BME280;67862;0.000;0.000;2023-04-25T03:58:38;97936.63;;;22.47;55.51
78573;BME280;67862;0.000;0.000;2023-04-25T04:01:03;97940.81;;;22.45;56.54
78573;BME280;67862;0.000;0.000;2023-04-25T04:03:35;97936.16;;;22.45;56.44
78573;BME280;67862;0.000;0.000;2023-04-25T04:06:04;97936.16;;;22.45;56.05
78573;BME280;67862;0.000;0.000;2023-04-25T04:08:34;97941.16;;;22.43;56.11
78573;BME280;67862;0.000;0.000;2023-04-25T04:10:59;97937.28;;;22.44;56.26
78573;BME280;67862;0.000;0.000;2023-04-25T04:13:25;97938.09;;;22.45;56.59
78573;BME280;67862;0.000;0.000;2023-04-25T04:15:51;97933.41;;;22.45;56.74
78573;BME280;67862;0.000;0.000;2023-04-25T04:18:16;97939.69;;;22.46;56.48
78573;BME280;67862;0.000;0.000;2023-04-25T04:20:41;97944.69;;;22.44;56.44
78573;BME280;67862;0.000;0.000;2023-04-25T04:23:10;97942.75;;;22.44;56.10
78573;BME280;67862;0.000;0.000;2023-04-25T04:25:35;97945.81;;;22.43;56.63
78573;BME280;67862;0.000;0.000;2023-04-25T04:28:01;97946.16;;;22.41;56.54
78573;BME280;67862;0.000;0.000;2023-04-25T04:30:27;97945.81;;;22.43;56.59
78573;BME280;67862;0.000;0.000;2023-04-25T04:32:56;97943.88;;;22.43;56.25
78573;BME280;67862;0.000;0.000;2023-04-25T04:35:22;97938.41;;;22.43;56.30
78573;BME280;67862;0.000;0.000;2023-04-25T04:37:47;97947.75;;;22.42;56.44
78573;BME280;67862;0.000;0.000;2023-04-25T04:40:16;97940.69;;;22.41;56.48
78573;BME280;67862;0.000;0.000;2023-04-25T04:42:42;97943.41;;;22.41;56.00
78573;BME280;67862;0.000;0.000;2023-04-25T04:45:08;97942.59;;;22.41;56.01
78573;BME280;67862;0.000;0.000;2023-04-25T04:47:34;97953.22;;;22.42;55.88
78573;BME280;67862;0.000;0.000;2023-04-25T04:50:02;97948.88;;;22.41;55.60
78573;BME280;67862;0.000;0.000;2023-04-25T04:52:27;97949.50;;;22.47;56.50
78573;BME280;67862;0.000;0.000;2023-04-25T04:54:53;97951.25;;;22.51;56.09
78573;BME280;67862;0.000;0.000;2023-04-25T04:57:18;97949.31;;;22.52;56.35
78573;BME280;67862;0.000;0.000;2023-04-25T04:59:43;97949.66;;;22.50;56.24
78573;BME280;67862;0.000;0.000;2023-04-25T05:02:09;97950.94;;;22.44;56.25
78573;BME280;67862;0.000;0.000;2023-04-25T05:04:35;97955.28;;;22.45;56.62
78573;BME280;67862;0.000;0.000;2023-04-25T05:07:00;97954.97;;;22.47;56.57
78573;BME280;67862;0.000;0.000;2023-04-25T05:09:26;97955.94;;;22.42;56.64
78573;BME280;67862;0.000;0.000;2023-04-25T05:11:52;97956.75;;;22.43;56.56
78573;BME280;67862;0.000;0.000;2023-04-25T05:14:17;97957.88;;;22.42;56.28
78573;BME280;67862;0.000;0.000;2023-04-25T05:16:43;97950.00;;;22.40;56.61
78573;BME280;67862;0.000;0.000;2023-04-25T05:19:08;97955.47;;;22.40;56.33
78573;BME280;67862;0.000;0.000;2023-04-25T05:21:34;97953.88;;;22.39;56.40
78573;BME280;67862;0.000;0.000;2023-04-25T05:24:00;97955.47;;;22.40;56.42
78573;BME280;67862;0.000;0.000;2023-04-25T05:26:25;97958.50;;;22.39;56.72
78573;BME280;67862;0.000;0.000;2023-04-25T05:28:51;97960.44;;;22.38;56.38
78573;BME280;67862;0.000;0.000;2023-04-25T05:31:16;97958.38;;;22.35;56.77
78573;BME280;67862;0.000;0.000;2023-04-25T05:33:41;97954.50;;;22.36;56.70
78573;BME280;67862;0.000;0.000;2023-04-25T05:36:07;97951.78;;;22.36;56.72
78573;BME280;67862;0.000;0.000;2023-04-25T05:38:32;97961.09;;;22.44;56.30
78573;BME280;67862;0.000;0.000;2023-04-25T05:40:58;97959.47;;;22.43;56.24
78573;BME280;67862;0.000;0.000;2023-04-25T05:43:29;97950.81;;;22.41;55.89
78573;BME280;67862;0.000;0.000;2023-04-25T05:45:55;97957.25;;;22.36;56.29
78573;BME280;67862;0.000;0.000;2023-04-25T05:48:20;97976.06;;;19.56;55.79
78573;BME280;67862;0.000;0.000;2023-04-25T05:50:46;97975.00;;;19.30;57.70
78573;BME280;67862;0.000;0.000;2023-04-25T05:53:11;97975.84;;;19.66;56.38
78573;BME280;67862;0.000;0.000;2023-04-25T05:55:36;97967.56;;;20.78;56.52
78573;BME280;67862;0.000;0.000;2023-04-25T05:58:05;97978.69;;;21.48;56.41
78573;BME280;67862;0.000;0.000;2023-04-25T06:00:30;97972.44;;;21.82;55.29
78573;BME280;67862;0.000;0.000;2023-04-25T06:02:56;97956.97;;;21.94;55.11
78573;BME280;67862;0.000;0.000;2023-04-25T06:05:21;97966.63;;;22.00;54.48
78573;BME280;67862;0.000;0.000;2023-04-25T06:07:46;97984.94;;;22.00;55.09
78573;BME280;67862;0.000;0.000;2023-04-25T06:10:12;97971.44;;;22.04;54.95
78573;BME280;67862;0.000;0.000;2023-04-25T06:12:37;97975.97;;;21.91;54.10
78573;BME280;67862;0.000;0.000;2023-04-25T06:15:04;97974.03;;;21.83;53.65
78573;BME280;67862;0.000;0.000;2023-04-25T06:17:32;97976.25;;;21.81;54.47
78573;BME280;67862;0.000;0.000;2023-04-25T06:19:57;97980.44;;;21.87;54.78
78573;BME280;67862;0.000;0.000;2023-04-25T06:22:23;97979.66;;;21.95;54.48
78573;BME280;67862;0.000;0.000;2023-04-25T06:24:48;97984.47;;;21.98;54.59
78573;BME280;67862;0.000;0.000;2023-04-25T06:27:13;97988.50;;;22.00;54.48
78573;BME280;67862;0.000;0.000;2023-04-25T06:29:39;97995.56;;;22.02;54.59
78573;BME280;67862;0.000;0.000;2023-04-25T06:32:04;97990.91;;;22.02;54.55
78573;BME280;67862;0.000;0.000;2023-04-25T06:34:30;97999.44;;;22.00;54.64
78573;BME280;67862;0.000;0.000;2023-04-25T06:36:55;97999.91;;;22.03;54.73
78573;BME280;67862;0.000;0.000;2023-04-25T06:39:20;97991.22;;;22.00;54.84
78573;BME280;67862;0.000;0.000;2023-04-25T06:41:48;98002.63;;;22.03;55.03
78573;BME280;67862;0.000;0.000;2023-04-25T06:44:13;97999.09;;;22.02;54.73
78573;BME280;67862;0.000;0.000;2023-04-25T06:46:39;98003.09;;;22.05;54.92
78573;BME280;67862;0.000;0.000;2023-04-25T06:49:04;98005.84;;;22.05;55.29
78573;BME280;67862;0.000;0.000;2023-04-25T06:51:29;98005.84;;;22.05;54.92
78573;BME280;67862;0.000;0.000;2023-04-25T06:53:55;98008.91;;;22.03;55.10
78573;BME280;67862;0.000;0.000;2023-04-25T06:56:21;98009.69;;;22.04;55.12
78573;BME280;67862;0.000;0.000;2023-04-25T06:58:46;98008.91;;;22.03;55.00
78573;BME280;67862;0.000;0.000;2023-04-25T07:01:11;98014.03;;;22.05;55.35
78573;BME280;67862;0.000;0.000;2023-04-25T07:03:37;98008.09;;;22.03;55.38
78573;BME280;67862;0.000;0.000;2023-04-25T07:06:03;98008.09;;;22.03;55.79
78573;BME280;67862;0.000;0.000;2023-04-25T07:08:28;98007.78;;;22.04;56.03
78573;BME280;67862;0.000;0.000;2023-04-25T07:10:54;98006.16;;;22.03;55.52
78573;BME280;67862;0.000;0.000;2023-04-25T07:13:19;98013.22;;;22.04;56.05
78573;BME280;67862;0.000;0.000;2023-04-25T07:15:45;98008.91;;;22.03;56.12
78573;BME280;67862;0.000;0.000;2023-04-25T07:18:12;97999.09;;;22.02;56.33
78573;BME280;67862;0.000;0.000;2023-04-25T07:20:37;98006.16;;;22.03;56.46
78573;BME280;67862;0.000;0.000;2023-04-25T07:23:03;98006.78;;;22.00;56.19
78573;BME280;67862;0.000;0.000;2023-04-25T07:25:28;97999.91;;;22.03;56.76
78573;BME280;67862;0.000;0.000;2023-04-25T07:27:54;98002.78;;;22.06;56.47
78573;BME280;67862;0.000;0.000;2023-04-25T07:30:19;98008.75;;;22.08;56.75
78573;BME280;67862;0.000;0.000;2023-04-25T07:32:44;98011.47;;;22.17;56.39
78573;BME280;67862;0.000;0.000;2023-04-25T07:35:10;98007.78;;;22.21;56.33
78573;BME280;67862;0.000;0.000;2023-04-25T07:37:35;98004.56;;;22.19;56.31
78573;BME280;67862;0.000;0.000;2023-04-25T07:40:02;97994.91;;;22.22;55.96
78573;BME280;67862;0.000;0.000;2023-04-25T07:42:28;97999.25;;;22.23;56.24
78573;BME280;67862;0.000;0.000;2023-04-25T07:44:55;98005.66;;;22.27;55.97
78573;BME280;67862;0.000;0.000;2023-04-25T07:47:20;98003.25;;;22.34;56.16
78573;BME280;67862;0.000;0.000;2023-04-25T07:49:46;98010.78;;;22.46;55.37
78573;BME280;67862;0.000;0.000;2023-04-25T07:52:15;98013.53;;;22.37;55.70
78573;BME280;67862;0.000;0.000;2023-04-25T07:54:40;98010.34;;;22.91;54.39
78573;BME280;67862;0.000;0.000;2023-04-25T07:57:06;98016.72;;;23.03;53.98
78573;BME280;67862;0.000;0.000;2023-04-25T07:59:32;98015.03;;;22.81;54.35
78573;BME280;67862;0.000;0.000;2023-04-25T08:01:57;98015.25;;;23.06;53.84
78573;BME280;67862;0.000;0.000;2023-04-25T08:04:23;98006.16;;;22.93;54.54
78573;BME280;67862;0.000;0.000;2023-04-25T08:06:48;98011.19;;;22.74;52.86
78573;BME280;67862;0.000;0.000;2023-04-25T08:09:14;98034.94;;;22.00;49.91
78573;BME280;67862;0.000;0.000;2023-04-25T08:11:40;98019.19;;;21.89;53.51
78573;BME280;67862;0.000;0.000;2023-04-25T08:14:06;98021.09;;;22.06;56.19
78573;BME280;67862;0.000;0.000;2023-04-25T08:16:32;98020.31;;;22.22;55.51
78573;BME280;67862;0.000;0.000;2023-04-25T08:18:58;98020.00;;;22.33;54.68
78573;BME280;67862;0.000;0.000;2023-04-25T08:21:23;98016.13;;;22.25;53.59
78573;BME280;67862;0.000;0.000;2023-04-25T08:23:49;98025.13;;;21.82;50.75
78573;BME280;67862;0.000;0.000;2023-04-25T08:26:14;98018.06;;;21.64;49.06
78573;BME280;67862;0.000;0.000;2023-04-25T08:28:39;98022.53;;;21.60;48.80
78573;BME280;67862;0.000;0.000;2023-04-25T08:31:05;98019.31;;;21.58;47.66
78573;BME280;67862;0.000;0.000;2023-04-25T08:33:30;98032.81;;;21.54;46.77
78573;BME280;67862;0.000;0.000;2023-04-25T08:35:57;98018.50;;;21.49;46.73
78573;BME280;67862;0.000;0.000;2023-04-25T08:38:22;98023.81;;;21.71;51.78
78573;BME280;67862;0.000;0.000;2023-04-25T08:40:49;98015.16;;;22.04;52.58
78573;BME280;67862;0.000;0.000;2023-04-25T08:43:15;98012.47;;;22.12;52.11
78573;BME280;67862;0.000;0.000;2023-04-25T08:45:42;98016.47;;;22.15;52.08
78573;BME280;67862;0.000;0.000;2023-04-25T08:48:11;98015.34;;;22.16;52.75
78573;BME280;67862;0.000;0.000;2023-04-25T08:50:40;98022.75;;;22.15;52.94
78573;BME280;67862;0.000;0.000;2023-04-25T08:53:09;98022.72;;;22.24;52.48
78573;BME280;67862;0.000;0.000;2023-04-25T08:55:42;98021.44;;;22.30;52.31
78573;BME280;67862;0.000;0.000;2023-04-25T08:58:07;98026.59;;;22.32;52.55
78573;BME280;67862;0.000;0.000;2023-04-25T09:00:35;98028.38;;;22.10;51.22
78573;BME280;67862;0.000;0.000;2023-04-25T09:03:00;98025.63;;;22.02;51.72
78573;BME280;67862;0.000;0.000;2023-04-25T09:05:26;98024.50;;;22.03;52.75
78573;BME280;67862;0.000;0.000;2023-04-25T09:07:53;98035.75;;;22.10;52.75
78573;BME280;67862;0.000;0.000;2023-04-25T09:10:19;98026.25;;;21.98;50.46
78573;BME280;67862;0.000;0.000;2023-04-25T09:12:44;98028.66;;;22.00;52.80
78573;BME280;67862;0.000;0.000;2023-04-25T09:15:10;98034.13;;;22.00;51.53
78573;BME280;67862;0.000;0.000;2023-04-25T09:17:36;98025.28;;;21.94;50.75
78573;BME280;67862;0.000;0.000;2023-04-25T09:20:09;98027.56;;;21.92;49.98
78573;BME280;67862;0.000;0.000;2023-04-25T09:22:35;98029.63;;;21.95;50.34
78573;BME280;67862;0.000;0.000;2023-04-25T09:25:08;98030.75;;;21.94;50.21
78573;BME280;67862;0.000;0.000;2023-04-25T09:27:35;98025.78;;;21.88;49.31
78573;BME280;67862;0.000;0.000;2023-04-25T09:30:01;98015.03;;;21.91;51.86
78573;BME280;67862;0.000;0.000;2023-04-25T09:32:27;98029.78;;;21.90;48.49
78573;BME280;67862;0.000;0.000;2023-04-25T09:34:53;98019.34;;;21.92;51.76
78573;BME280;67862;0.000;0.000;2023-04-25T09:37:20;98024.50;;;22.03;53.14
78573;BME280;67862;0.000;0.000;2023-04-25T09:39:56;98020.00;;;22.07;53.23
78573;BME280;67862;0.000;0.000;2023-04-25T09:42:22;98028.50;;;21.96;54.82
78573;BME280;67862;0.000;0.000;2023-04-25T09:44:49;98030.59;;;21.99;54.27
78573;BME280;67862;0.000;0.000;2023-04-25T09:47:16;98038.63;;;21.79;50.12
78573;BME280;67862;0.000;0.000;2023-04-25T09:49:43;98032.66;;;21.68;52.62
78573;BME280;67862;0.000;0.000;2023-04-25T09:52:09;98031.03;;;21.58;51.17
78573;BME280;67862;0.000;0.000;2023-04-25T09:54:38;98035.53;;;21.46;48.87
78573;BME280;67862;0.000;0.000;2023-04-25T09:57:24;98027.03;;;21.56;51.09
78573;BME280;67862;0.000;0.000;2023-04-25T09:59:49;98027.38;;;21.71;51.61
78573;BME280;67862;0.000;0.000;2023-04-25T10:02:16;98008.25;;;21.80;51.70
78573;BME280;67862;0.000;0.000;2023-04-25T10:04:42;98032.34;;;21.87;52.07
78573;BME280;67862;0.000;0.000;2023-04-25T10:07:10;98010.66;;;21.90;51.68
78573;BME280;67862;0.000;0.000;2023-04-25T10:09:36;98024.03;;;21.92;52.21
78573;BME280;67862;0.000;0.000;2023-04-25T10:12:04;98022.09;;;21.92;52.16
78573;BME280;67862;0.000;0.000;2023-04-25T10:14:31;98014.84;;;21.96;51.74
78573;BME280;67862;0.000;0.000;2023-04-25T10:16:57;98013.72;;;21.97;51.79
78573;BME280;67862;0.000;0.000;2023-04-25T10:19:23;98016.28;;;22.03;51.52
78573;BME280;67862;0.000;0.000;2023-04-25T10:21:52;98017.09;;;22.03;52.00
78573;BME280;67862;0.000;0.000;2023-04-25T10:24:19;98019.34;;;22.01;51.63
78573;BME280;67862;0.000;0.000;2023-04-25T10:26:45;98019.66;;;21.99;52.08
78573;BME280;67862;0.000;0.000;2023-04-25T10:29:11;98017.25;;;21.98;51.99
78573;BME280;67862;0.000;0.000;2023-04-25T10:31:44;98020.31;;;21.96;52.11
78573;BME280;67862;0.000;0.000;2023-04-25T10:34:10;98014.50;;;21.98;52.17
78573;BME280;67862;0.000;0.000;2023-04-25T10:36:35;98031.72;;;21.98;52.05
78573;BME280;67862;0.000;0.000;2023-04-25T10:39:03;98026.56;;;21.97;51.88
78573;BME280;67862;0.000;0.000;2023-04-25T10:41:31;98034.78;;;21.97;51.83
78573;BME280;67862;0.000;0.000;2023-04-25T10:44:10;98028.81;;;21.95;52.17
78573;BME280;67862;0.000;0.000;2023-04-25T10:46:36;98048.28;;;21.93;51.89
78573;BME280;67862;0.000;0.000;2023-04-25T10:49:04;98030.28;;;21.92;52.08
78573;BME280;67862;0.000;0.000;2023-04-25T10:51:31;98039.28;;;21.93;52.34
78573;BME280;67862;0.000;0.000;2023-04-25T10:56:23;98028.03;;;21.94;52.27
78573;BME280;67862;0.000;0.000;2023-04-25T10:58:50;98040.88;;;21.94;52.16
78573;BME280;67862;0.000;0.000;2023-04-25T11:01:15;98033.50;;;21.94;52.39
78573;BME280;67862;0.000;0.000;2023-04-25T11:03:46;98049.09;;;21.94;52.32
78573;BME280;67862;0.000;0.000;2023-04-25T11:06:20;98048.28;;;21.93;52.41
78573;BME280;67862;0.000;0.000;2023-04-25T11:08:48;98047.16;;;22.03;52.09
78573;BME280;67862;0.000;0.000;2023-04-25T11:11:15;98046.84;;;22.05;52.16
78573;BME280;67862;0.000;0.000;2023-04-25T11:13:40;98057.13;;;22.08;52.42
78573;BME280;67862;0.000;0.000;2023-04-25T11:16:09;98057.63;;;22.10;52.40
78573;BME280;67862;0.000;0.000;2023-04-25T11:18:34;98064.38;;;22.12;52.41
78573;BME280;67862;0.000;0.000;2023-04-25T11:21:00;98067.28;;;22.16;52.75
78573;BME280;67862;0.000;0.000;2023-04-25T11:23:25;98060.69;;;22.17;52.62
78573;BME280;67862;0.000;0.000;2023-04-25T11:25:52;98066.16;;;22.17;53.01
78573;BME280;67862;0.000;0.000;2023-04-25T11:28:21;98069.34;;;22.19;52.65
78573;BME280;67862;0.000;0.000;2023-04-25T11:30:50;98064.69;;;22.19;53.39
78573;BME280;67862;0.000;0.000;2023-04-25T11:33:15;98069.84;;;22.21;53.20
78573;BME280;67862;0.000;0.000;2023-04-25T11:35:42;98078.06;;;22.21;53.16
78573;BME280;67862;0.000;0.000;2023-04-25T11:38:07;98077.41;;;22.24;53.27
78573;BME280;67862;0.000;0.000;2023-04-25T11:40:32;98075.16;;;22.26;53.23
78573;BME280;67862;0.000;0.000;2023-04-25T11:42:59;98087.69;;;22.27;53.59
78573;BME280;67862;0.000;0.000;2023-04-25T11:45:25;98079.97;;;22.29;53.40
78573;BME280;67862;0.000;0.000;2023-04-25T11:47:51;98081.59;;;22.30;53.48
78573;BME280;67862;0.000;0.000;2023-04-25T11:50:17;98083.19;;;22.31;53.36
78573;BME280;67862;0.000;0.000;2023-04-25T11:52:43;98084.94;;;22.36;53.43
78573;BME280;67862;0.000;0.000;2023-04-25T11:55:09;98087.84;;;22.39;53.60
78573;BME280;67862;0.000;0.000;2023-04-25T11:57:35;98090.59;;;22.39;53.29
78573;BME280;67862;0.000;0.000;2023-04-25T12:00:06;98090.41;;;22.36;53.55
78573;BME280;67862;0.000;0.000;2023-04-25T12:02:34;98093.47;;;22.34;53.59
78573;BME280;67862;0.000;0.000;2023-04-25T12:05:00;98095.09;;;22.35;53.93
78573;BME280;67862;0.000;0.000;2023-04-25T12:07:29;98088.66;;;22.40;53.60
78573;BME280;67862;0.000;0.000;2023-04-25T12:09:55;98098.63;;;22.36;53.49
78573;BME280;67862;0.000;0.000;2023-04-25T12:12:20;98100.69;;;22.39;53.73
78573;BME280;67862;0.000;0.000;2023-04-25T12:14:46;98099.91;;;22.38;53.66
78573;BME280;67862;0.000;0.000;2023-04-25T12:17:13;98107.63;;;22.36;54.15
78573;BME280;67862;0.000;0.000;2023-04-25T12:19:38;98110.84;;;22.38;53.80
78573;BME280;67862;0.000;0.000;2023-04-25T12:24:52;98106.03;;;22.35;54.34
78573;BME280;67862;0.000;0.000;2023-04-25T12:27:18;98107.16;;;22.34;54.09
78573;BME280;67862;0.000;0.000;2023-04-25T12:29:50;98106.03;;;22.35;54.22
78573;BME280;67862;0.000;0.000;2023-04-25T12:32:16;98106.03;;;22.35;54.32
78573;BME280;67862;0.000;0.000;2023-04-25T12:34:42;98111.97;;;22.37;54.37
78573;BME280;67862;0.000;0.000;2023-04-25T12:37:08;98097.16;;;22.38;54.01
78573;BME280;67862;0.000;0.000;2023-04-25T12:39:34;98101.53;;;22.39;53.95
78573;BME280;67862;0.000;0.000;2023-04-25T12:41:59;98092.50;;;22.39;54.15
78573;BME280;67862;0.000;0.000;2023-04-25T12:44:25;98094.28;;;22.35;54.31
78573;BME280;67862;0.000;0.000;2023-04-25T12:46:50;98099.91;;;22.38;54.14
78573;BME280;67862;0.000;0.000;2023-04-25T12:49:16;98097.16;;;22.38;53.79
78573;BME280;67862;0.000;0.000;2023-04-25T12:51:41;98090.09;;;22.37;53.81
78573;BME280;67862;0.000;0.000;2023-04-25T12:54:07;98092.19;;;22.40;53.95
78573;BME280;67862;0.000;0.000;2023-04-25T12:56:33;98086.88;;;22.44;53.93
78573;BME280;67862;0.000;0.000;2023-04-25T12:58:59;98085.59;;;22.41;53.44
78573;BME280;67862;0.000;0.000;2023-04-25T13:01:24;98087.19;;;22.42;53.71
78573;BME280;67862;0.000;0.000;2023-04-25T13:03:50;98084.81;;;22.41;54.01
78573;BME280;67862;0.000;0.000;2023-04-25T13:06:15;98079.47;;;22.44;53.48
78573;BME280;67862;0.000;0.000;2023-04-25T13:08:41;98079.94;;;22.46;53.66